sensor_id;sensor_type;location;lat;lon;timestamp;pressure;altitude;pressure_sealevel;temperature;humidity
63700;BME280;49845;47.130;142.766;2023-04-23T00:00:17;99895.25;;;4.09;59.25
63700;BME280;49845;47.130;142.766;2023-04-23T00:02:51;99891.84;;;4.19;59.86
63700;BME280;49845;47.130;142.766;2023-04-23T00:05:26;99898.75;;;4.20;58.73
63700;BME280;49845;47.130;142.766;2023-04-23T00:07:59;99900.44;;;4.09;58.17
63700;BME280;49845;47.130;142.766;2023-04-23T00:10:31;99900.41;;;4.00;59.60
63700;BME280;49845;47.130;142.766;2023-04-23T00:13:02;99909.00;;;3.99;59.71
63700;BME280;49845;47.130;142.766;2023-04-23T00:15:36;99901.28;;;4.03;59.62
63700;BME280;49845;47.130;142.766;2023-04-23T00:18:06;99903.88;;;4.05;59.38
63700;BME280;49845;47.130;142.766;2023-04-23T00:20:38;99901.25;;;3.97;59.14
63700;BME280;49845;47.130;142.766;2023-04-23T00:23:09;99895.25;;;4.09;59.18
63700;BME280;49845;47.130;142.766;2023-04-23T00:25:40;99909.16;;;4.32;58.87
63700;BME280;49845;47.130;142.766;2023-04-23T00:28:10;99902.28;;;4.35;58.12
63700;BME280;49845;47.130;142.766;2023-04-23T00:30:41;99895.38;;;4.49;59.20
63700;BME280;49845;47.130;142.766;2023-04-23T00:33:11;99908.34;;;4.47;58.47
63700;BME280;49845;47.130;142.766;2023-04-23T00:35:44;99905.78;;;4.76;57.37
63700;BME280;49845;47.130;142.766;2023-04-23T00:38:15;99903.22;;;4.81;57.94
63700;BME280;49845;47.130;142.766;2023-04-23T00:40:45;99905.81;;;4.83;57.45
63700;BME280;49845;47.130;142.766;2023-04-23T00:43:17;99909.25;;;4.69;57.05
63700;BME280;49845;47.130;142.766;2023-04-23T00:45:48;99900.63;;;4.80;57.13
63700;BME280;49845;47.130;142.766;2023-04-23T00:48:20;99899.78;;;4.78;57.16
63700;BME280;49845;47.130;142.766;2023-04-23T00:50:58;99902.38;;;4.90;56.34
63700;BME280;49845;47.130;142.766;2023-04-23T00:53:29;99895.47;;;5.07;56.27
63700;BME280;49845;47.130;142.766;2023-04-23T00:56:01;99879.91;;;4.89;55.89
63700;BME280;49845;47.130;142.766;2023-04-23T00:58:33;99904.97;;;4.94;55.72
63700;BME280;49845;47.130;142.766;2023-04-23T01:01:05;99898.94;;;5.09;56.25
63700;BME280;49845;47.130;142.766;2023-04-23T01:03:36;99896.34;;;5.00;54.98
63700;BME280;49845;47.130;142.766;2023-04-23T01:06:10;99897.19;;;4.93;55.15
63700;BME280;49845;47.130;142.766;2023-04-23T01:08:42;99901.50;;;4.98;55.71
63700;BME280;49845;47.130;142.766;2023-04-23T01:11:13;99898.91;;;5.03;55.28
63700;BME280;49845;47.130;142.766;2023-04-23T01:13:44;99893.75;;;5.12;55.62
63700;BME280;49845;47.130;142.766;2023-04-23T01:16:14;99898.06;;;5.27;54.77
63700;BME280;49845;47.130;142.766;2023-04-23T01:18:45;99897.19;;;5.36;54.17
63700;BME280;49845;47.130;142.766;2023-04-23T01:21:17;99895.44;;;5.44;54.55
63700;BME280;49845;47.130;142.766;2023-04-23T01:23:50;99895.44;;;5.44;56.27
63700;BME280;49845;47.130;142.766;2023-04-23T01:26:21;99893.75;;;5.37;55.24
63700;BME280;49845;47.130;142.766;2023-04-23T01:28:52;99901.50;;;5.40;55.90
63700;BME280;49845;47.130;142.766;2023-04-23T01:31:23;99900.63;;;5.44;54.93
63700;BME280;49845;47.130;142.766;2023-04-23T01:33:55;99890.22;;;5.56;55.02
63700;BME280;49845;47.130;142.766;2023-04-23T01:36:25;99898.91;;;5.49;55.16
63700;BME280;49845;47.130;142.766;2023-04-23T01:38:58;99893.72;;;5.52;54.67
63700;BME280;49845;47.130;142.766;2023-04-23T01:41:29;99891.09;;;5.63;54.32
63700;BME280;49845;47.130;142.766;2023-04-23T01:44:00;99881.59;;;5.51;54.06
63700;BME280;49845;47.130;142.766;2023-04-23T01:46:30;99878.97;;;5.74;54.20
63700;BME280;49845;47.130;142.766;2023-04-23T01:49:01;99888.47;;;5.77;53.99
63700;BME280;49845;47.130;142.766;2023-04-23T01:51:32;99875.53;;;5.66;52.98
63700;BME280;49845;47.130;142.766;2023-04-23T01:54:04;99876.34;;;5.82;52.88
63700;BME280;49845;47.130;142.766;2023-04-23T01:56:36;99868.53;;;5.88;52.92
63700;BME280;49845;47.130;142.766;2023-04-23T01:59:06;99876.31;;;5.91;53.08
63700;BME280;49845;47.130;142.766;2023-04-23T02:01:45;99867.66;;;6.01;52.10
63700;BME280;49845;47.130;142.766;2023-04-23T02:04:16;99870.22;;;6.06;52.59
63700;BME280;49845;47.130;142.766;2023-04-23T02:06:48;99876.31;;;6.00;51.93
63700;BME280;49845;47.130;142.766;2023-04-23T02:09:21;99871.97;;;6.12;51.00
63700;BME280;49845;47.130;142.766;2023-04-23T02:11:55;99859.91;;;5.95;50.96
63700;BME280;49845;47.130;142.766;2023-04-23T02:14:26;99872.75;;;6.29;51.31
63700;BME280;49845;47.130;142.766;2023-04-23T02:16:57;99864.97;;;6.24;50.74
63700;BME280;49845;47.130;142.766;2023-04-23T02:19:28;99868.44;;;6.26;50.87
63700;BME280;49845;47.130;142.766;2023-04-23T02:22:02;99857.28;;;6.01;50.32
63700;BME280;49845;47.130;142.766;2023-04-23T02:24:34;99864.19;;;6.05;50.32
63700;BME280;49845;47.130;142.766;2023-04-23T02:27:07;99854.72;;;5.97;51.28
63700;BME280;49845;47.130;142.766;2023-04-23T02:29:37;99854.66;;;6.11;50.17
63700;BME280;49845;47.130;142.766;2023-04-23T02:32:09;99862.41;;;6.18;49.49
63700;BME280;49845;47.130;142.766;2023-04-23T02:34:40;99839.16;;;5.98;50.37
63700;BME280;49845;47.130;142.766;2023-04-23T02:37:11;99853.75;;;6.16;48.92
63700;BME280;49845;47.130;142.766;2023-04-23T02:39:44;99852.00;;;6.23;49.45
63700;BME280;49845;47.130;142.766;2023-04-23T02:42:15;99855.38;;;6.40;48.92
63700;BME280;49845;47.130;142.766;2023-04-23T02:44:45;99845.06;;;6.25;49.94
63700;BME280;49845;47.130;142.766;2023-04-23T02:47:16;99863.31;;;6.03;49.08
63700;BME280;49845;47.130;142.766;2023-04-23T02:49:47;99859.88;;;6.09;49.82
63700;BME280;49845;47.130;142.766;2023-04-23T02:52:17;99864.13;;;6.21;49.88
63700;BME280;49845;47.130;142.766;2023-04-23T02:54:49;99839.06;;;6.17;49.59
63700;BME280;49845;47.130;142.766;2023-04-23T02:57:21;99861.59;;;5.93;49.81
63700;BME280;49845;47.130;142.766;2023-04-23T02:59:52;99852.19;;;5.71;50.69
63700;BME280;49845;47.130;142.766;2023-04-23T03:02:23;99862.50;;;5.89;50.56
63700;BME280;49845;47.130;142.766;2023-04-23T03:04:55;99841.78;;;5.80;50.30
63700;BME280;49845;47.130;142.766;2023-04-23T03:07:25;99856.44;;;5.98;50.24
63700;BME280;49845;47.130;142.766;2023-04-23T03:09:58;99847.78;;;5.99;50.74
63700;BME280;49845;47.130;142.766;2023-04-23T03:12:31;99853.75;;;6.18;49.78
63700;BME280;49845;47.130;142.766;2023-04-23T03:15:01;99846.03;;;6.04;49.78
63700;BME280;49845;47.130;142.766;2023-04-23T03:17:32;99858.97;;;6.09;50.33
63700;BME280;49845;47.130;142.766;2023-04-23T03:20:03;99876.31;;;5.99;50.04
63700;BME280;49845;47.130;142.766;2023-04-23T03:22:34;99864.25;;;5.87;49.77
63700;BME280;49845;47.130;142.766;2023-04-23T03:25:07;99840.09;;;5.70;49.19
63700;BME280;49845;47.130;142.766;2023-04-23T03:27:39;99870.25;;;5.91;50.24
63700;BME280;49845;47.130;142.766;2023-04-23T03:30:11;99875.38;;;6.17;49.58
63700;BME280;49845;47.130;142.766;2023-04-23T03:32:42;99871.03;;;6.25;49.11
63700;BME280;49845;47.130;142.766;2023-04-23T03:35:13;99862.19;;;6.54;49.20
63700;BME280;49845;47.130;142.766;2023-04-23T03:37:44;99877.72;;;6.63;49.04
63700;BME280;49845;47.130;142.766;2023-04-23T03:40:16;99866.56;;;6.48;48.67
63700;BME280;49845;47.130;142.766;2023-04-23T03:42:47;99857.25;;;6.08;49.31
63700;BME280;49845;47.130;142.766;2023-04-23T03:45:17;99878.06;;;5.95;49.10
63700;BME280;49845;47.130;142.766;2023-04-23T03:47:49;99883.25;;;5.89;48.26
63700;BME280;49845;47.130;142.766;2023-04-23T03:50:20;99879.75;;;5.93;48.39
63700;BME280;49845;47.130;142.766;2023-04-23T03:52:52;99882.38;;;5.92;47.80
63700;BME280;49845;47.130;142.766;2023-04-23T03:55:25;99865.94;;;6.00;47.82
63700;BME280;49845;47.130;142.766;2023-04-23T03:57:55;99877.16;;;6.07;47.10
63700;BME280;49845;47.130;142.766;2023-04-23T04:00:27;99871.13;;;6.07;48.61
63700;BME280;49845;47.130;142.766;2023-04-23T04:02:58;99872.84;;;6.08;47.47
63700;BME280;49845;47.130;142.766;2023-04-23T04:05:30;99875.47;;;5.95;48.24
63700;BME280;49845;47.130;142.766;2023-04-23T04:08:01;99856.53;;;5.72;48.84
63700;BME280;49845;47.130;142.766;2023-04-23T04:10:34;99863.44;;;5.74;49.09
63700;BME280;49845;47.130;142.766;2023-04-23T04:13:05;99874.63;;;5.78;49.47
63700;BME280;49845;47.130;142.766;2023-04-23T04:15:35;99871.22;;;5.70;49.12
63700;BME280;49845;47.130;142.766;2023-04-23T04:18:06;99885.03;;;5.72;50.04
63700;BME280;49845;47.130;142.766;2023-04-23T04:20:37;99876.41;;;5.67;50.21
63700;BME280;49845;47.130;142.766;2023-04-23T04:23:08;99871.22;;;5.63;49.76
63700;BME280;49845;47.130;142.766;2023-04-23T04:25:40;99879.84;;;5.66;50.86
63700;BME280;49845;47.130;142.766;2023-04-23T04:28:10;99864.25;;;5.78;50.07
63700;BME280;49845;47.130;142.766;2023-04-23T04:30:41;99868.56;;;5.79;50.56
63700;BME280;49845;47.130;142.766;2023-04-23T04:33:12;99881.50;;;5.91;49.88
63700;BME280;49845;47.130;142.766;2023-04-23T04:35:43;99871.16;;;5.79;49.49
63700;BME280;49845;47.130;142.766;2023-04-23T04:38:14;99883.25;;;5.89;49.54
63700;BME280;49845;47.130;142.766;2023-04-23T04:40:46;99883.25;;;5.92;50.00
63700;BME280;49845;47.130;142.766;2023-04-23T04:43:18;99883.25;;;5.95;49.31
63700;BME280;49845;47.130;142.766;2023-04-23T04:45:48;99872.88;;;5.92;49.42
63700;BME280;49845;47.130;142.766;2023-04-23T04:48:19;99874.59;;;5.96;49.27
63700;BME280;49845;47.130;142.766;2023-04-23T04:50:50;99864.25;;;5.87;49.23
63700;BME280;49845;47.130;142.766;2023-04-23T04:53:20;99878.06;;;5.92;48.74
63700;BME280;49845;47.130;142.766;2023-04-23T04:55:53;99864.25;;;5.81;49.43
63700;BME280;49845;47.130;142.766;2023-04-23T04:58:24;99869.47;;;5.72;48.58
63700;BME280;49845;47.130;142.766;2023-04-23T05:04:02;99875.41;;;6.06;49.96
63700;BME280;49845;47.130;142.766;2023-04-23T05:06:33;99858.91;;;6.21;48.27
63700;BME280;49845;47.130;142.766;2023-04-23T05:09:03;99876.19;;;6.30;48.59
63700;BME280;49845;47.130;142.766;2023-04-23T05:11:37;99869.31;;;6.21;48.24
63700;BME280;49845;47.130;142.766;2023-04-23T05:14:08;99870.22;;;6.06;48.67
63700;BME280;49845;47.130;142.766;2023-04-23T05:16:39;99869.28;;;6.24;49.61
63700;BME280;49845;47.130;142.766;2023-04-23T05:19:09;99854.50;;;6.40;49.26
63700;BME280;49845;47.130;142.766;2023-04-23T05:21:41;99868.91;;;6.85;49.58
63700;BME280;49845;47.130;142.766;2023-04-23T05:24:11;99877.31;;;7.15;48.10
63700;BME280;49845;47.130;142.766;2023-04-23T05:26:43;99872.31;;;6.92;47.15
63700;BME280;49845;47.130;142.766;2023-04-23T05:29:14;99835.38;;;6.53;45.93
63700;BME280;49845;47.130;142.766;2023-04-23T05:31:46;99886.31;;;6.71;48.26
63700;BME280;49845;47.130;142.766;2023-04-23T05:34:18;99876.75;;;6.79;46.20
63700;BME280;49845;47.130;142.766;2023-04-23T05:36:49;99883.66;;;6.82;46.58
63700;BME280;49845;47.130;142.766;2023-04-23T05:39:22;99877.84;;;6.38;45.97
63700;BME280;49845;47.130;142.766;2023-04-23T05:41:55;99884.06;;;6.10;47.43
63700;BME280;49845;47.130;142.766;2023-04-23T05:44:27;99892.78;;;5.95;47.93
63700;BME280;49845;47.130;142.766;2023-04-23T05:46:59;99891.88;;;6.07;45.00
63700;BME280;49845;47.130;142.766;2023-04-23T05:49:30;99897.09;;;5.82;46.14
63700;BME280;49845;47.130;142.766;2023-04-23T05:52:01;99897.13;;;5.73;47.30
63700;BME280;49845;47.130;142.766;2023-04-23T05:54:32;99898.00;;;5.70;47.56
63700;BME280;49845;47.130;142.766;2023-04-23T05:57:04;99863.44;;;5.60;47.12
63700;BME280;49845;47.130;142.766;2023-04-23T05:59:35;99904.91;;;5.70;47.23
63700;BME280;49845;47.130;142.766;2023-04-23T06:02:06;99887.66;;;5.52;47.30
63700;BME280;49845;47.130;142.766;2023-04-23T06:04:38;99898.84;;;5.61;47.21
63700;BME280;49845;47.130;142.766;2023-04-23T06:07:09;99900.56;;;5.69;47.29
63700;BME280;49845;47.130;142.766;2023-04-23T06:09:41;99895.34;;;5.87;48.54
63700;BME280;49845;47.130;142.766;2023-04-23T06:12:13;99864.22;;;5.89;46.01
63700;BME280;49845;47.130;142.766;2023-04-23T06:14:44;99896.16;;;6.06;47.52
63700;BME280;49845;47.130;142.766;2023-04-23T06:17:15;99848.59;;;6.09;46.73
63700;BME280;49845;47.130;142.766;2023-04-23T06:19:48;99904.81;;;6.08;46.79
63700;BME280;49845;47.130;142.766;2023-04-23T06:22:18;99912.59;;;6.03;46.92
63700;BME280;49845;47.130;142.766;2023-04-23T06:24:49;99914.34;;;6.08;47.41
63700;BME280;49845;47.130;142.766;2023-04-23T06:27:21;99908.31;;;5.81;46.93
63700;BME280;49845;47.130;142.766;2023-04-23T06:29:52;99916.94;;;6.03;48.11
63700;BME280;49845;47.130;142.766;2023-04-23T06:32:22;99915.22;;;6.05;46.11
63700;BME280;49845;47.130;142.766;2023-04-23T06:34:54;99917.84;;;5.94;47.24
63700;BME280;49845;47.130;142.766;2023-04-23T06:37:29;99907.44;;;5.96;46.95
63700;BME280;49845;47.130;142.766;2023-04-23T06:39:59;99912.66;;;5.76;46.77
63700;BME280;49845;47.130;142.766;2023-04-23T06:42:32;99923.06;;;5.70;44.96
63700;BME280;49845;47.130;142.766;2023-04-23T06:45:02;99916.16;;;5.41;47.25
63700;BME280;49845;47.130;142.766;2023-04-23T06:47:33;99916.19;;;5.38;47.36
63700;BME280;49845;47.130;142.766;2023-04-23T06:50:05;99919.63;;;5.46;47.15
63700;BME280;49845;47.130;142.766;2023-04-23T06:52:36;99892.81;;;5.70;46.94
63700;BME280;49845;47.130;142.766;2023-04-23T06:55:08;99914.38;;;5.89;47.51
63700;BME280;49845;47.130;142.766;2023-04-23T06:57:40;99908.31;;;5.92;46.23
63700;BME280;49845;47.130;142.766;2023-04-23T07:00:12;99909.22;;;5.77;46.72
63700;BME280;49845;47.130;142.766;2023-04-23T07:02:42;99914.41;;;5.61;47.21
63700;BME280;49845;47.130;142.766;2023-04-23T07:05:13;99924.78;;;5.61;46.77
63700;BME280;49845;47.130;142.766;2023-04-23T07:07:44;99917.91;;;5.57;45.88
63700;BME280;49845;47.130;142.766;2023-04-23T07:10:14;99915.31;;;5.42;45.88
63700;BME280;49845;47.130;142.766;2023-04-23T07:12:47;99912.75;;;5.30;46.97
63700;BME280;49845;47.130;142.766;2023-04-23T07:15:17;99902.38;;;5.11;46.49
63700;BME280;49845;47.130;142.766;2023-04-23T07:17:48;99923.06;;;4.99;47.70
63700;BME280;49845;47.130;142.766;2023-04-23T07:20:19;99923.06;;;4.84;48.49
63700;BME280;49845;47.130;142.766;2023-04-23T07:22:50;99923.03;;;4.68;47.83
63700;BME280;49845;47.130;142.766;2023-04-23T07:25:20;99929.06;;;4.66;48.10
63700;BME280;49845;47.130;142.766;2023-04-23T07:27:53;99943.72;;;4.53;48.14
63700;BME280;49845;47.130;142.766;2023-04-23T07:30:25;99891.84;;;4.18;48.33
63700;BME280;49845;47.130;142.766;2023-04-23T07:32:55;99945.41;;;4.45;49.53
63700;BME280;49845;47.130;142.766;2023-04-23T07:35:26;99931.66;;;4.52;49.01
63700;BME280;49845;47.130;142.766;2023-04-23T07:37:56;99942.88;;;4.60;49.34
63700;BME280;49845;47.130;142.766;2023-04-23T07:40:27;99945.41;;;4.51;48.24
63700;BME280;49845;47.130;142.766;2023-04-23T07:42:59;99945.38;;;4.39;48.51
63700;BME280;49845;47.130;142.766;2023-04-23T07:45:30;99959.19;;;4.41;48.33
63700;BME280;49845;47.130;142.766;2023-04-23T07:48:01;99962.59;;;4.37;48.88
63700;BME280;49845;47.130;142.766;2023-04-23T07:50:32;99953.97;;;4.25;48.91
63700;BME280;49845;47.130;142.766;2023-04-23T07:53:02;99964.31;;;4.25;49.12
63700;BME280;49845;47.130;142.766;2023-04-23T07:55:33;99963.31;;;3.97;49.56
63700;BME280;49845;47.130;142.766;2023-04-23T07:58:05;99984.78;;;3.88;50.42
63700;BME280;49845;47.130;142.766;2023-04-23T08:00:36;99972.72;;;3.84;51.05
63700;BME280;49845;47.130;142.766;2023-04-23T08:03:06;99989.00;;;3.73;50.83
63700;BME280;49845;47.130;142.766;2023-04-23T08:05:37;99983.81;;;3.71;51.62
63700;BME280;49845;47.130;142.766;2023-04-23T08:08:09;99976.06;;;3.71;52.22
63700;BME280;49845;47.130;142.766;2023-04-23T08:10:40;99972.56;;;3.63;51.30
63700;BME280;49845;47.130;142.766;2023-04-23T08:13:12;99990.66;;;3.66;51.92
63700;BME280;49845;47.130;142.766;2023-04-23T08:15:43;99984.59;;;3.61;51.90
63700;BME280;49845;47.130;142.766;2023-04-23T08:18:14;99978.44;;;3.43;52.49
63700;BME280;49845;47.130;142.766;2023-04-23T08:20:44;99996.53;;;3.46;53.15
63700;BME280;49845;47.130;142.766;2023-04-23T08:23:15;99987.78;;;3.29;53.66
63700;BME280;49845;47.130;142.766;2023-04-23T08:25:46;99996.38;;;3.25;54.16
63700;BME280;49845;47.130;142.766;2023-04-23T08:28:19;100003.25;;;3.26;54.57
63700;BME280;49845;47.130;142.766;2023-04-23T08:30:49;100008.31;;;3.17;54.53
63700;BME280;49845;47.130;142.766;2023-04-23T08:33:20;100003.00;;;3.01;54.62
63700;BME280;49845;47.130;142.766;2023-04-23T08:35:54;100001.22;;;2.94;55.08
63700;BME280;49845;47.130;142.766;2023-04-23T08:38:25;100013.22;;;2.89;55.09
63700;BME280;49845;47.130;142.766;2023-04-23T08:40:56;100023.66;;;3.01;55.34
63700;BME280;49845;47.130;142.766;2023-04-23T08:43:32;100018.56;;;3.05;55.26
63700;BME280;49845;47.130;142.766;2023-04-23T08:46:11;100017.66;;;3.04;55.32
63700;BME280;49845;47.130;142.766;2023-04-23T08:48:43;100037.34;;;2.94;56.03
63700;BME280;49845;47.130;142.766;2023-04-23T08:51:17;100023.50;;;2.86;56.32
63700;BME280;49845;47.130;142.766;2023-04-23T08:53:50;100017.28;;;2.69;56.36
63700;BME280;49845;47.130;142.766;2023-04-23T08:56:26;100036.25;;;2.74;57.20
63700;BME280;49845;47.130;142.766;2023-04-23T08:58:58;100038.78;;;2.68;56.95
63700;BME280;49845;47.130;142.766;2023-04-23T09:01:31;100043.88;;;2.63;57.65
63700;BME280;49845;47.130;142.766;2023-04-23T09:04:02;100045.53;;;2.59;58.02
63700;BME280;49845;47.130;142.766;2023-04-23T09:06:34;100052.34;;;2.54;57.78
63700;BME280;49845;47.130;142.766;2023-04-23T09:09:06;100056.66;;;2.52;58.51
63700;BME280;49845;47.130;142.766;2023-04-23T09:11:40;100029.66;;;2.26;58.05
63700;BME280;49845;47.130;142.766;2023-04-23T09:14:17;100060.72;;;2.35;58.40
63700;BME280;49845;47.130;142.766;2023-04-23T09:16:52;100070.91;;;2.26;59.14
63700;BME280;49845;47.130;142.766;2023-04-23T09:19:25;100063.97;;;2.22;59.32
63700;BME280;49845;47.130;142.766;2023-04-23T09:21:57;100066.47;;;2.15;59.54
63700;BME280;49845;47.130;142.766;2023-04-23T09:24:35;100071.50;;;2.08;59.64
63700;BME280;49845;47.130;142.766;2023-04-23T09:27:05;100063.75;;;2.06;60.02
63700;BME280;49845;47.130;142.766;2023-04-23T09:29:39;100063.66;;;2.00;60.22
63700;BME280;49845;47.130;142.766;2023-04-23T09:32:15;100067.91;;;1.98;60.71
63700;BME280;49845;47.130;142.766;2023-04-23T09:34:46;100073.91;;;1.97;60.66
63700;BME280;49845;47.130;142.766;2023-04-23T09:37:25;100074.69;;;1.90;60.94
63700;BME280;49845;47.130;142.766;2023-04-23T09:39:58;100084.09;;;1.88;60.87
63700;BME280;49845;47.130;142.766;2023-04-23T09:42:28;100084.09;;;1.88;61.30
63700;BME280;49845;47.130;142.766;2023-04-23T09:45:06;100076.34;;;1.88;61.58
63700;BME280;49845;47.130;142.766;2023-04-23T09:47:38;100077.06;;;1.78;61.25
63700;BME280;49845;47.130;142.766;2023-04-23T09:50:10;100082.25;;;1.81;61.66
63700;BME280;49845;47.130;142.766;2023-04-23T09:52:43;100098.56;;;1.81;61.80
63700;BME280;49845;47.130;142.766;2023-04-23T09:55:14;100078.56;;;1.66;62.26
63700;BME280;49845;47.130;142.766;2023-04-23T09:57:54;100100.16;;;1.75;61.95
63700;BME280;49845;47.130;142.766;2023-04-23T10:00:32;100102.75;;;1.75;62.14
63700;BME280;49845;47.130;142.766;2023-04-23T10:03:04;100118.19;;;1.75;62.09
63700;BME280;49845;47.130;142.766;2023-04-23T10:05:39;100121.66;;;1.77;62.46
63700;BME280;49845;47.130;142.766;2023-04-23T10:08:14;100118.19;;;1.75;62.65
63700;BME280;49845;47.130;142.766;2023-04-23T10:10:46;100124.16;;;1.72;62.45
63700;BME280;49845;47.130;142.766;2023-04-23T10:13:20;100124.13;;;1.69;62.76
63700;BME280;49845;47.130;142.766;2023-04-23T10:15:52;100127.59;;;1.71;63.21
63700;BME280;49845;47.130;142.766;2023-04-23T10:18:41;100124.06;;;1.66;62.91
63700;BME280;49845;47.130;142.766;2023-04-23T10:21:14;100140.44;;;1.69;63.13
63700;BME280;49845;47.130;142.766;2023-04-23T10:23:47;100128.50;;;1.73;62.93
63700;BME280;49845;47.130;142.766;2023-04-23T10:26:20;100137.13;;;1.77;63.11
63700;BME280;49845;47.130;142.766;2023-04-23T10:28:54;100149.19;;;1.78;63.85
63700;BME280;49845;47.130;142.766;2023-04-23T10:31:33;100150.84;;;1.76;63.44
63700;BME280;49845;47.130;142.766;2023-04-23T10:34:06;100157.69;;;1.73;63.44
63700;BME280;49845;47.130;142.766;2023-04-23T10:36:39;100159.50;;;1.78;63.03
63700;BME280;49845;47.130;142.766;2023-04-23T10:39:10;100157.63;;;1.70;63.17
63700;BME280;49845;47.130;142.766;2023-04-23T10:41:42;100168.91;;;1.77;63.35
63700;BME280;49845;47.130;142.766;2023-04-23T10:44:14;100169.78;;;1.78;63.71
63700;BME280;49845;47.130;142.766;2023-04-23T10:47:12;100165.38;;;1.72;63.74
63700;BME280;49845;47.130;142.766;2023-04-23T10:49:52;100164.50;;;1.71;63.21
63700;BME280;49845;47.130;142.766;2023-04-23T10:52:23;100178.38;;;1.80;63.09
63700;BME280;49845;47.130;142.766;2023-04-23T10:54:57;100181.78;;;1.76;63.64
63700;BME280;49845;47.130;142.766;2023-04-23T10:57:28;100185.25;;;1.78;63.47
63700;BME280;49845;47.130;142.766;2023-04-23T11:00:01;100186.94;;;1.76;63.93
63700;BME280;49845;47.130;142.766;2023-04-23T11:02:44;100200.72;;;1.78;64.14
63700;BME280;49845;47.130;142.766;2023-04-23T11:05:15;100134.75;;;1.39;64.27
63700;BME280;49845;47.130;142.766;2023-04-23T11:08:04;100198.19;;;1.81;63.82
63700;BME280;49845;47.130;142.766;2023-04-23T11:10:57;100212.72;;;1.79;64.16
63700;BME280;49845;47.130;142.766;2023-04-23T11:13:28;100212.69;;;1.76;63.84
63700;BME280;49845;47.130;142.766;2023-04-23T11:16:16;100218.66;;;1.73;64.14
63700;BME280;49845;47.130;142.766;2023-04-23T11:19:10;100215.22;;;1.72;64.44
63700;BME280;49845;47.130;142.766;2023-04-23T11:21:59;100225.56;;;1.76;64.33
63700;BME280;49845;47.130;142.766;2023-04-23T11:24:37;100221.09;;;1.65;64.36
63700;BME280;49845;47.130;142.766;2023-04-23T11:27:11;100240.88;;;1.68;64.52
63700;BME280;49845;47.130;142.766;2023-04-23T11:29:43;100232.22;;;1.64;64.98
63700;BME280;49845;47.130;142.766;2023-04-23T11:32:17;100241.63;;;1.62;64.91
63700;BME280;49845;47.130;142.766;2023-04-23T11:34:58;100243.22;;;1.57;65.52
63700;BME280;49845;47.130;142.766;2023-04-23T11:37:42;100210.13;;;1.32;66.71
63700;BME280;49845;47.130;142.766;2023-04-23T11:40:24;100211.78;;;1.29;66.85
63700;BME280;49845;47.130;142.766;2023-04-23T11:43:00;100255.16;;;1.52;67.25
63700;BME280;49845;47.130;142.766;2023-04-23T11:45:31;100262.81;;;1.47;67.60
63700;BME280;49845;47.130;142.766;2023-04-23T11:48:06;100251.44;;;1.38;67.72
63700;BME280;49845;47.130;142.766;2023-04-23T11:50:41;100266.19;;;1.45;68.21
63700;BME280;49845;47.130;142.766;2023-04-23T11:53:11;100270.28;;;1.37;68.50
63700;BME280;49845;47.130;142.766;2023-04-23T11:55:42;100270.28;;;1.37;69.52
63700;BME280;49845;47.130;142.766;2023-04-23T11:58:16;100266.69;;;1.28;69.96
63700;BME280;49845;47.130;142.766;2023-04-23T12:00:56;100276.94;;;1.25;70.87
63700;BME280;49845;47.130;142.766;2023-04-23T12:03:29;100273.38;;;1.20;71.43
63700;BME280;49845;47.130;142.766;2023-04-23T12:06:02;100248.13;;;1.02;71.55
63700;BME280;49845;47.130;142.766;2023-04-23T12:08:33;100287.28;;;1.28;71.35
63700;BME280;49845;47.130;142.766;2023-04-23T12:11:07;100277.75;;;1.24;71.27
63700;BME280;49845;47.130;142.766;2023-04-23T12:13:40;100278.53;;;1.20;71.23
63700;BME280;49845;47.130;142.766;2023-04-23T12:16:15;100285.56;;;1.27;71.84
63700;BME280;49845;47.130;142.766;2023-04-23T12:18:53;100285.63;;;1.31;72.38
63700;BME280;49845;47.130;142.766;2023-04-23T12:21:25;100286.31;;;1.23;72.33
63700;BME280;49845;47.130;142.766;2023-04-23T12:23:57;100293.88;;;1.17;72.56
63700;BME280;49845;47.130;142.766;2023-04-23T12:26:28;100289.59;;;1.16;73.06
63700;BME280;49845;47.130;142.766;2023-04-23T12:28:59;100285.13;;;1.09;73.37
63700;BME280;49845;47.130;142.766;2023-04-23T12:31:36;100295.59;;;1.15;73.88
63700;BME280;49845;47.130;142.766;2023-04-23T12:34:09;100292.03;;;1.10;73.96
63700;BME280;49845;47.130;142.766;2023-04-23T12:36:45;100259.06;;;0.94;74.49
63700;BME280;49845;47.130;142.766;2023-04-23T12:39:26;100279.06;;;1.05;74.47
63700;BME280;49845;47.130;142.766;2023-04-23T12:42:01;100292.09;;;1.13;74.66
63700;BME280;49845;47.130;142.766;2023-04-23T12:44:36;100286.88;;;1.10;74.73
63700;BME280;49845;47.130;142.766;2023-04-23T12:47:10;100284.28;;;1.08;75.05
63700;BME280;49845;47.130;142.766;2023-04-23T12:49:45;100293.75;;;1.11;75.15
63700;BME280;49845;47.130;142.766;2023-04-23T12:52:18;100304.06;;;1.11;75.37
63700;BME280;49845;47.130;142.766;2023-04-23T12:54:55;100302.34;;;1.10;75.20
63700;BME280;49845;47.130;142.766;2023-04-23T12:57:27;100313.31;;;1.03;74.72
63700;BME280;49845;47.130;142.766;2023-04-23T12:59:58;100315.88;;;1.03;75.59
63700;BME280;49845;47.130;142.766;2023-04-23T13:02:31;100309.88;;;1.02;76.10
63700;BME280;49845;47.130;142.766;2023-04-23T13:05:01;100321.03;;;1.03;76.57
63700;BME280;49845;47.130;142.766;2023-04-23T13:07:34;100305.44;;;0.97;77.10
63700;BME280;49845;47.130;142.766;2023-04-23T13:10:05;100320.25;;;1.05;77.42
63700;BME280;49845;47.130;142.766;2023-04-23T13:12:36;100320.94;;;1.00;77.44
63700;BME280;49845;47.130;142.766;2023-04-23T13:15:08;100309.69;;;0.95;76.71